createdAt,value
2022-09-09T00:05:06.394Z,32.3
2022-09-09T00:10:44.042Z,32.3
2022-09-09T04:59:30.838Z,29
2022-09-09T05:05:09.132Z,28.8
2022-09-09T05:10:30.909Z,28.6
2022-09-09T05:16:11.272Z,28.5
2022-09-09T05:21:55.229Z,28.4
2022-09-09T05:27:16.986Z,28.3
2022-09-09T05:32:27.111Z,28.3
2022-09-09T05:38:05.047Z,28.2
2022-09-09T05:43:46.164Z,28.1
2022-09-09T05:49:24.571Z,28.1
2022-09-09T05:55:02.281Z,28.1
2022-09-09T06:00:24.047Z,28
2022-09-09T06:06:06.668Z,39.1
2022-09-09T06:11:45.211Z,36.8
2022-09-09T06:17:22.443Z,35.8
2022-09-09T06:22:59.952Z,35.2
2022-09-09T06:28:38.122Z,41.6
2022-09-09T06:34:16.235Z,42.6
2022-09-09T06:39:54.131Z,43.3
2022-09-09T06:45:31.989Z,43.9
2022-09-09T06:51:10.689Z,44.5
2022-09-09T06:56:51.148Z,45.1
2022-09-09T07:02:17.493Z,45.6
2022-09-09T07:07:24.343Z,45.9
2022-09-09T07:13:09.729Z,46.3
2022-09-09T07:18:51.906Z,46.9
2022-09-09T07:24:29.858Z,47.4
2022-09-09T07:30:13.745Z,48
2022-09-09T07:35:52.885Z,48.5
2022-09-09T07:41:35.761Z,49
2022-09-09T07:47:14.980Z,49.7
2022-09-09T07:52:40.511Z,50.4
2022-09-09T07:58:19.146Z,50.9
2022-09-09T08:03:44.570Z,51.8
2022-09-09T08:09:22.593Z,52.1
2022-09-09T08:15:32.357Z,52.3
2022-09-09T08:26:31.983Z,52.9
2022-09-09T08:32:09.880Z,53.1
2022-09-09T08:37:54.529Z,52.9
2022-09-09T08:43:36.327Z,53.2
2022-09-09T08:49:04.211Z,53.6
2022-09-09T08:54:48.703Z,53.9
2022-09-09T09:00:13.607Z,54.5
2022-09-09T09:05:40.882Z,54.9
2022-09-09T13:34:42.892Z,49.3
2022-09-09T13:40:23.810Z,48.9
2022-09-09T13:46:01.642Z,48.4
2022-09-09T13:51:42.188Z,48.1
2022-09-09T13:57:04.673Z,47.9
2022-09-09T14:03:12.044Z,47.9
2022-09-09T14:08:50.075Z,47.9
2022-09-09T14:14:28.236Z,47.7
2022-09-09T14:20:05.611Z,47.6
2022-09-09T14:25:49.422Z,47.4
2022-09-09T14:31:41.704Z,47.1
2022-09-09T14:37:03.195Z,46.6
2022-09-09T14:42:41.609Z,45.5
2022-09-09T14:48:04.361Z,45.1
2022-09-09T14:53:27.461Z,44.9
2022-09-09T14:59:05.566Z,44.8
2022-09-09T15:04:44.788Z,44.3
2022-09-09T15:10:22.048Z,44.1
2022-09-09T15:16:03.147Z,43.6
2022-09-09T15:21:45.872Z,43.3
2022-09-09T15:27:24.048Z,42.9
2022-09-09T15:33:02.238Z,42.5
2022-09-09T15:38:39.754Z,42.1
2022-09-09T15:44:18.267Z,41.8
2022-09-09T15:50:01.074Z,40.6
2022-09-09T15:56:01.815Z,38.6
2022-09-09T16:01:39.773Z,37.3
2022-09-09T16:07:23.432Z,36.1
2022-09-09T16:13:06.732Z,35.2
2022-09-09T16:18:43.290Z,34.4
2022-09-09T16:24:20.990Z,33.7
2022-09-09T16:30:02.513Z,33.1
2022-09-09T16:35:45.206Z,32.6
2022-09-09T16:41:22.407Z,32.3
2022-09-09T16:47:01.207Z,31.9
2022-09-09T16:52:38.235Z,31.7
2022-09-09T16:58:16.239Z,31.4
2022-09-09T17:03:58.769Z,31.2
2022-09-09T17:09:38.535Z,31
2022-09-09T17:15:00.723Z,30.9
2022-09-09T17:21:03.070Z,30.7
2022-09-09T17:27:03.623Z,30.5
2022-09-09T17:32:10.392Z,30.4
2022-09-09T17:37:48.127Z,30.3
2022-09-09T17:43:15.045Z,30.2
2022-09-09T17:48:37.467Z,30.1
2022-09-09T17:54:15.304Z,30
2022-09-09T17:59:52.653Z,29.9
2022-09-09T18:05:32.122Z,29.9
2022-09-09T18:11:10.197Z,29.9
2022-09-09T18:16:46.486Z,29.9
2022-09-09T18:22:23.795Z,29.8
2022-09-09T18:28:02.098Z,29.8
2022-09-09T18:33:42.136Z,29.7
2022-09-09T18:39:23.748Z,29.4
2022-09-09T18:45:02.210Z,29.1
2022-09-09T18:50:39.120Z,28.9
2022-09-09T18:56:01.651Z,28.8
2022-09-09T19:01:39.867Z,28.6
2022-09-09T19:07:17.054Z,28.5
2022-09-09T19:12:46.022Z,28.4
2022-09-09T19:18:24.126Z,28.3
2022-09-09T19:23:45.747Z,28.3
2022-09-09T19:29:07.767Z,28.2
2022-09-09T19:35:37.850Z,28.1
2022-09-09T19:46:22.800Z,27.7
2022-09-09T19:51:45.530Z,27.6
2022-09-09T19:57:24.219Z,27.4
2022-09-09T20:03:25.251Z,27.4
2022-09-09T20:09:03.597Z,27.3
2022-09-09T20:14:40.382Z,27.1
2022-09-09T20:20:18.397Z,27.1
2022-09-09T20:26:00.853Z,27
2022-09-09T20:31:27.815Z,26.9
2022-09-09T20:37:05.530Z,26.9
2022-09-09T20:42:45.522Z,26.9
2022-09-09T20:48:22.448Z,26.8
2022-09-09T20:54:05.885Z,26.8
2022-09-09T20:59:43.672Z,26.8
2022-09-09T21:05:24.045Z,26.7
2022-09-09T21:11:01.996Z,26.6
2022-09-09T21:16:40.693Z,26.6
2022-09-09T21:22:01.634Z,26.6
2022-09-09T21:27:39.258Z,26.6
2022-09-09T21:33:26.425Z,26.6
2022-09-09T21:39:08.658Z,26.5
2022-09-09T21:44:46.426Z,26.5
2022-09-09T21:50:27.991Z,26.4
2022-09-09T21:55:50.747Z,26.4
2022-09-09T22:01:12.811Z,26.4
2022-09-09T22:06:52.709Z,26.4
2022-09-09T22:12:14.015Z,26.4
2022-09-09T22:17:50.765Z,26.4
2022-09-09T22:23:28.549Z,26.4
2022-09-09T22:28:50.262Z,26.4
2022-09-09T22:34:12.263Z,26.4
2022-09-09T22:39:50.484Z,26.4
2022-09-09T22:44:41.054Z,26.3
2022-09-09T22:50:18.197Z,26.3
2022-09-09T22:55:45.793Z,26.3
2022-09-09T23:01:23.820Z,26.3
2022-09-09T23:07:01.173Z,26.3
2022-09-09T23:12:23.678Z,26.3
2022-09-09T23:17:45.865Z,26.3
2022-09-09T23:23:22.649Z,26.3
2022-09-09T23:29:00.710Z,26.3
2022-09-09T23:34:22.740Z,26.3
2022-09-09T23:39:13.961Z,26.3
2022-09-09T23:44:21.296Z,26.3
2022-09-09T23:49:27.436Z,26.3
2022-09-09T23:54:49.558Z,26.3
2022-09-09T23:59:56.599Z,26.3
